createdAt,value
2022-12-29T00:01:00.320Z,99.90
2022-12-29T00:03:27.578Z,99.90
2022-12-29T00:05:56.255Z,99.90
2022-12-29T00:08:40.121Z,99.90
2022-12-29T00:11:24.766Z,99.90
2022-12-29T00:14:11.885Z,99.90
2022-12-29T00:16:41.469Z,99.90
2022-12-29T00:19:28.593Z,99.90
2022-12-29T00:22:14.398Z,99.90
2022-12-29T00:25:00.211Z,99.90
2022-12-29T00:27:50.031Z,99.90
2022-12-29T00:30:38.225Z,99.90
2022-12-29T00:33:36.625Z,99.90
2022-12-29T00:36:29.840Z,99.90
2022-12-29T00:39:23.039Z,99.90
2022-12-29T00:42:08.945Z,99.90
2022-12-29T00:44:36.197Z,99.90
2022-12-29T00:47:05.233Z,99.90
2022-12-29T00:49:33.939Z,99.90
2022-12-29T00:52:07.430Z,99.90
2022-12-29T00:54:38.969Z,99.90
2022-12-29T00:57:08.880Z,99.90
2022-12-29T00:59:37.294Z,99.90
2022-12-29T01:02:04.820Z,99.90
2022-12-29T01:04:32.503Z,99.90
2022-12-29T01:07:00.261Z,99.90
2022-12-29T01:09:46.394Z,99.90
2022-12-29T01:12:14.255Z,99.90
2022-12-29T01:14:42.253Z,99.90
2022-12-29T01:17:09.465Z,99.90
2022-12-29T01:19:36.750Z,99.90
2022-12-29T01:22:03.881Z,99.90
2022-12-29T01:24:31.170Z,99.90
2022-12-29T01:26:58.345Z,99.90
2022-12-29T01:29:25.664Z,99.90
2022-12-29T01:31:52.943Z,99.90
2022-12-29T01:34:20.281Z,99.90
2022-12-29T01:36:47.566Z,99.90
2022-12-29T01:39:14.790Z,99.90
2022-12-29T01:41:42.413Z,99.90
2022-12-29T01:44:43.823Z,99.90
2022-12-29T01:47:11.571Z,99.90
2022-12-29T01:49:39.373Z,99.90
2022-12-29T01:52:08.936Z,99.90
2022-12-29T01:54:39.675Z,99.90
2022-12-29T01:57:12.516Z,99.90
2022-12-29T01:59:46.769Z,99.90
2022-12-29T02:02:14.092Z,99.90
2022-12-29T02:04:46.705Z,99.90
2022-12-29T02:07:20.572Z,99.90
2022-12-29T02:09:49.709Z,99.90
2022-12-29T02:12:19.085Z,99.90
2022-12-29T02:14:47.017Z,99.90
2022-12-29T02:17:28.872Z,99.90
2022-12-29T02:20:33.371Z,99.90
2022-12-29T02:23:31.821Z,99.90
2022-12-29T02:26:09.136Z,99.90
2022-12-29T02:28:55.388Z,99.90
2022-12-29T02:31:51.980Z,99.90
2022-12-29T02:34:53.427Z,99.90
2022-12-29T02:37:30.205Z,99.90
2022-12-29T02:40:23.170Z,99.90
2022-12-29T02:43:05.828Z,99.90
2022-12-29T02:45:44.964Z,99.90
2022-12-29T02:48:15.211Z,99.90
2022-12-29T02:51:03.412Z,99.90
2022-12-29T02:53:52.603Z,99.90
2022-12-29T02:56:20.269Z,99.90
2022-12-29T02:58:48.691Z,99.90
2022-12-29T03:01:34.635Z,99.90
2022-12-29T03:04:17.166Z,99.90
2022-12-29T03:06:55.581Z,99.90
2022-12-29T03:09:59.356Z,99.90
2022-12-29T03:13:19.597Z,99.90
2022-12-29T03:16:19.713Z,99.90
2022-12-29T03:18:57.478Z,99.90
2022-12-29T03:21:50.465Z,99.90
2022-12-29T03:24:22.925Z,99.90
2022-12-29T03:26:52.179Z,99.90
2022-12-29T03:29:21.709Z,99.90
2022-12-29T03:31:52.501Z,99.90
2022-12-29T03:34:22.130Z,99.90
2022-12-29T03:36:54.155Z,99.90
2022-12-29T03:39:24.647Z,99.90
2022-12-29T03:42:06.745Z,99.90
2022-12-29T03:44:44.385Z,99.90
2022-12-29T03:47:15.603Z,99.90
2022-12-29T03:49:45.045Z,99.90
2022-12-29T03:52:13.168Z,99.90
2022-12-29T03:54:44.297Z,99.90
2022-12-29T03:57:12.760Z,99.90
2022-12-29T03:59:50.651Z,99.90
2022-12-29T04:02:18.809Z,99.90
2022-12-29T04:04:46.555Z,99.90
2022-12-29T04:07:13.743Z,99.90
2022-12-29T04:09:42.200Z,99.90
2022-12-29T04:12:12.515Z,99.90
2022-12-29T04:14:39.748Z,99.90
2022-12-29T04:17:07.851Z,99.90
2022-12-29T04:19:35.244Z,99.90
2022-12-29T04:22:02.463Z,99.90
2022-12-29T04:24:30.462Z,99.90
2022-12-29T04:26:57.945Z,99.90
2022-12-29T04:29:48.322Z,99.90
2022-12-29T04:32:39.108Z,99.90
2022-12-29T04:35:07.261Z,99.90
2022-12-29T04:37:34.813Z,99.90
2022-12-29T04:40:02.094Z,99.90
2022-12-29T04:42:30.735Z,99.90
2022-12-29T04:44:58.272Z,99.90
2022-12-29T04:47:43.756Z,99.90
2022-12-29T04:50:38.534Z,99.90
2022-12-29T04:53:15.484Z,99.90
2022-12-29T04:55:44.352Z,99.90
2022-12-29T04:58:15.139Z,99.90
2022-12-29T05:00:44.774Z,99.90
2022-12-29T05:03:12.286Z,99.90
2022-12-29T05:05:42.053Z,99.90
2022-12-29T05:08:09.774Z,99.90
2022-12-29T05:10:44.787Z,99.90
2022-12-29T05:13:13.062Z,99.90
2022-12-29T05:15:40.888Z,99.90
2022-12-29T05:18:08.165Z,99.90
2022-12-29T05:20:35.378Z,99.90
2022-12-29T05:23:03.501Z,99.90
2022-12-29T05:25:30.862Z,99.90
2022-12-29T05:28:09.700Z,99.90
2022-12-29T05:30:44.187Z,99.90
2022-12-29T05:33:12.634Z,99.90
2022-12-29T05:35:40.634Z,99.90
2022-12-29T05:38:08.453Z,99.90
2022-12-29T05:40:35.698Z,99.90
2022-12-29T05:43:07.471Z,99.90
2022-12-29T05:45:55.893Z,99.90
2022-12-29T05:48:43.289Z,99.90
2022-12-29T05:51:30.700Z,99.90
2022-12-29T05:53:58.620Z,99.90
2022-12-29T05:56:26.088Z,99.90
2022-12-29T05:58:58.237Z,99.90
2022-12-29T06:01:25.630Z,99.90
2022-12-29T06:03:54.002Z,99.90
2022-12-29T06:06:21.841Z,99.90
2022-12-29T06:08:49.038Z,99.90
2022-12-29T06:11:16.325Z,99.90
2022-12-29T06:13:50.097Z,99.90
2022-12-29T06:16:17.686Z,99.90
2022-12-29T06:18:45.197Z,99.90
2022-12-29T06:21:12.850Z,99.90
2022-12-29T06:23:40.212Z,99.90
2022-12-29T06:26:07.413Z,99.90
2022-12-29T06:28:34.763Z,99.90
2022-12-29T06:31:03.743Z,99.90
2022-12-29T06:33:31.224Z,99.90
2022-12-29T06:35:58.588Z,99.90
2022-12-29T06:38:25.862Z,99.90
2022-12-29T06:40:53.094Z,99.90
2022-12-29T06:43:20.339Z,99.90
2022-12-29T06:46:06.070Z,99.90
2022-12-29T06:48:33.261Z,99.90
2022-12-29T06:51:00.568Z,99.90
2022-12-29T06:53:27.804Z,99.90
2022-12-29T06:55:55.153Z,99.90
2022-12-29T06:58:22.350Z,99.90
2022-12-29T07:00:49.722Z,99.90
2022-12-29T07:03:16.971Z,99.90
2022-12-29T07:05:44.341Z,99.90
2022-12-29T07:08:11.584Z,99.90
2022-12-29T07:10:38.843Z,99.90
2022-12-29T07:13:08.000Z,99.90
2022-12-29T07:15:37.140Z,99.90
2022-12-29T07:18:04.785Z,99.90
2022-12-29T07:20:32.509Z,99.90
2022-12-29T07:22:59.878Z,99.90
2022-12-29T07:25:27.148Z,99.90
2022-12-29T07:27:54.876Z,99.90
2022-12-29T07:30:22.059Z,99.90
2022-12-29T07:32:49.222Z,99.90
2022-12-29T07:35:16.468Z,99.90
2022-12-29T07:37:44.862Z,99.90
2022-12-29T07:40:13.627Z,99.90
2022-12-29T07:42:41.344Z,99.90
2022-12-29T07:45:10.577Z,99.90
2022-12-29T07:47:50.475Z,99.90
2022-12-29T07:50:17.721Z,99.90
2022-12-29T07:52:47.052Z,99.90
2022-12-29T07:55:15.002Z,99.90
2022-12-29T07:57:42.317Z,99.90
2022-12-29T08:00:10.560Z,99.90
2022-12-29T08:02:40.560Z,99.90
2022-12-29T08:05:08.037Z,99.90
2022-12-29T08:07:35.219Z,99.90
2022-12-29T08:10:02.488Z,99.90
2022-12-29T08:12:29.773Z,99.90
2022-12-29T08:14:57.061Z,99.90
2022-12-29T08:17:24.236Z,99.90
2022-12-29T08:19:51.399Z,99.90
2022-12-29T08:22:18.565Z,99.90
2022-12-29T08:24:45.797Z,99.90
2022-12-29T08:27:19.853Z,99.90
2022-12-29T08:29:48.456Z,99.90
2022-12-29T08:32:15.828Z,99.90
2022-12-29T08:34:43.002Z,99.90
2022-12-29T08:37:10.271Z,99.90
2022-12-29T08:39:37.439Z,99.90
2022-12-29T08:42:04.627Z,99.90
2022-12-29T08:44:31.827Z,99.90
2022-12-29T08:46:59.005Z,99.90
2022-12-29T08:49:26.272Z,99.90
2022-12-29T08:51:53.570Z,99.90
2022-12-29T08:54:20.731Z,99.90
2022-12-29T08:56:47.912Z,99.90
2022-12-29T08:59:16.791Z,99.90
2022-12-29T09:01:46.915Z,99.90
2022-12-29T09:04:16.452Z,99.90
2022-12-29T09:06:45.918Z,99.90
2022-12-29T09:09:13.337Z,99.90
2022-12-29T09:11:40.859Z,99.90
2022-12-29T09:14:08.218Z,99.90
2022-12-29T09:16:36.324Z,99.90
2022-12-29T09:19:04.267Z,99.90
2022-12-29T09:21:32.019Z,99.90
2022-12-29T09:23:59.179Z,99.90
2022-12-29T09:26:26.406Z,99.90
2022-12-29T09:28:53.889Z,99.90
2022-12-29T09:31:21.389Z,99.90
2022-12-29T09:33:48.574Z,99.90
2022-12-29T09:36:15.778Z,99.90
2022-12-29T09:38:43.151Z,99.90
2022-12-29T09:41:27.359Z,99.90
2022-12-29T09:44:06.448Z,99.90
2022-12-29T09:46:42.546Z,99.90
2022-12-29T09:49:17.486Z,99.90
2022-12-29T09:51:49.048Z,99.90
2022-12-29T09:54:37.786Z,99.90
2022-12-29T09:57:11.297Z,99.90
2022-12-29T09:59:45.047Z,99.90
2022-12-29T10:02:41.520Z,99.90
2022-12-29T10:05:42.087Z,99.90
2022-12-29T10:08:26.922Z,99.90
2022-12-29T10:11:16.930Z,99.90
2022-12-29T10:14:25.057Z,99.90
2022-12-29T10:17:13.529Z,99.90
2022-12-29T10:20:05.539Z,99.90
2022-12-29T10:22:57.273Z,99.90
2022-12-29T10:25:31.241Z,99.90
2022-12-29T10:28:14.235Z,99.90
2022-12-29T10:30:41.561Z,99.90
2022-12-29T10:33:15.651Z,99.90
2022-12-29T10:35:44.057Z,99.90
2022-12-29T10:38:23.599Z,99.90
2022-12-29T10:41:09.777Z,99.90
2022-12-29T10:43:49.647Z,99.90
2022-12-29T10:46:28.407Z,99.90
2022-12-29T10:48:55.625Z,99.90
2022-12-29T10:51:40.598Z,99.90
2022-12-29T10:54:15.959Z,99.90
2022-12-29T10:57:03.483Z,99.90
2022-12-29T10:59:33.738Z,99.90
2022-12-29T11:02:13.142Z,99.90
2022-12-29T11:04:53.360Z,99.90
2022-12-29T11:07:27.066Z,99.90
2022-12-29T11:09:54.892Z,99.90
2022-12-29T11:12:32.093Z,99.90
2022-12-29T11:15:08.519Z,99.90
2022-12-29T11:17:46.225Z,99.90
2022-12-29T11:20:36.423Z,99.90
2022-12-29T11:23:05.013Z,99.90
2022-12-29T11:25:32.403Z,99.90
2022-12-29T11:28:16.559Z,99.90
2022-12-29T11:30:44.578Z,99.70
2022-12-29T11:33:11.793Z,99.90
2022-12-29T11:35:45.677Z,99.90
2022-12-29T11:38:27.989Z,99.90
2022-12-29T11:40:55.331Z,99.40
2022-12-29T11:43:37.361Z,99.60
2022-12-29T11:46:06.111Z,99.90
2022-12-29T11:48:40.572Z,99.90
2022-12-29T11:51:09.004Z,99.10
2022-12-29T11:53:47.879Z,98.30
2022-12-29T11:56:23.574Z,98.20
2022-12-29T11:58:51.522Z,97.30
2022-12-29T12:01:31.675Z,99.20
2022-12-29T12:04:16.125Z,99.00
2022-12-29T12:06:57.400Z,98.20
2022-12-29T12:10:01.710Z,97.20
2022-12-29T12:12:36.634Z,97.00
2022-12-29T12:15:05.198Z,96.80
2022-12-29T12:17:51.898Z,97.60
2022-12-29T12:20:35.864Z,97.40
2022-12-29T12:23:14.027Z,97.40
2022-12-29T12:25:54.024Z,97.90
2022-12-29T12:28:36.475Z,97.40
2022-12-29T12:31:16.800Z,98.00
2022-12-29T12:33:49.053Z,97.30
2022-12-29T12:36:34.216Z,98.20
2022-12-29T12:39:16.189Z,97.60
2022-12-29T12:42:14.264Z,98.10
2022-12-29T12:44:54.238Z,97.90
2022-12-29T12:47:53.140Z,99.00
2022-12-29T12:50:52.744Z,98.00
2022-12-29T12:53:34.727Z,98.30
2022-12-29T12:56:22.016Z,98.50
2022-12-29T12:59:09.615Z,98.20
2022-12-29T13:01:49.336Z,98.40
2022-12-29T13:04:47.282Z,99.30
2022-12-29T13:07:31.405Z,98.90
2022-12-29T13:10:13.642Z,98.50
2022-12-29T13:13:04.185Z,98.60
2022-12-29T13:15:50.493Z,98.80
2022-12-29T13:18:23.310Z,99.00
2022-12-29T13:21:16.981Z,99.30
2022-12-29T13:24:13.127Z,99.10
2022-12-29T13:26:47.082Z,99.50
2022-12-29T13:29:23.942Z,99.80
2022-12-29T13:31:54.232Z,99.30
2022-12-29T13:34:40.158Z,99.90
2022-12-29T13:37:17.486Z,99.90
2022-12-29T13:39:51.848Z,99.60
2022-12-29T13:42:21.497Z,99.90
2022-12-29T13:45:05.719Z,99.80
2022-12-29T13:47:43.259Z,99.40
2022-12-29T13:50:18.785Z,99.90
2022-12-29T13:53:06.290Z,99.90
2022-12-29T13:55:41.540Z,99.90
2022-12-29T13:58:39.904Z,99.90
2022-12-29T14:01:31.908Z,99.90
2022-12-29T14:04:01.455Z,99.90
2022-12-29T14:06:31.594Z,99.90
2022-12-29T14:09:07.254Z,99.90
2022-12-29T14:11:41.736Z,99.90
2022-12-29T14:14:34.194Z,99.90
2022-12-29T14:17:15.317Z,99.90
2022-12-29T14:19:47.408Z,99.90
2022-12-29T14:22:27.558Z,99.90
2022-12-29T14:25:00.152Z,99.90
2022-12-29T14:27:30.175Z,99.90
2022-12-29T14:29:57.418Z,99.90
2022-12-29T14:32:27.716Z,99.90
2022-12-29T14:34:56.931Z,99.90
2022-12-29T14:37:31.070Z,99.90
2022-12-29T14:40:06.400Z,99.90
2022-12-29T14:42:34.569Z,99.90
2022-12-29T14:45:13.669Z,99.90
2022-12-29T14:47:46.277Z,99.90
2022-12-29T14:50:15.835Z,99.90
2022-12-29T14:53:07.212Z,99.90
2022-12-29T14:55:41.794Z,99.90
2022-12-29T14:58:28.849Z,99.90
2022-12-29T15:00:56.747Z,99.90
2022-12-29T15:03:39.060Z,99.90
2022-12-29T15:06:10.440Z,99.90
2022-12-29T15:08:47.762Z,99.90
2022-12-29T15:11:18.331Z,99.90
2022-12-29T15:13:46.626Z,99.90
2022-12-29T15:16:32.177Z,99.90
2022-12-29T15:18:59.829Z,99.90
2022-12-29T15:21:37.375Z,99.90
2022-12-29T15:24:05.421Z,99.90
2022-12-29T15:26:41.855Z,99.90
2022-12-29T15:29:46.947Z,99.90
2022-12-29T15:32:17.185Z,99.90
2022-12-29T15:34:45.773Z,99.90
2022-12-29T15:37:22.692Z,99.90
2022-12-29T15:39:50.513Z,99.90
2022-12-29T15:42:24.547Z,99.90
2022-12-29T15:44:58.048Z,99.90
2022-12-29T15:47:31.441Z,99.90
2022-12-29T15:50:09.679Z,99.90
2022-12-29T15:52:40.907Z,99.90
2022-12-29T15:55:22.501Z,99.90
2022-12-29T15:57:50.052Z,99.90
2022-12-29T16:00:26.672Z,99.90
2022-12-29T16:02:55.947Z,99.90
2022-12-29T16:05:23.894Z,99.90
2022-12-29T16:07:59.988Z,99.90
2022-12-29T16:10:42.174Z,99.90
2022-12-29T16:13:25.696Z,99.90
2022-12-29T16:16:16.497Z,99.90
2022-12-29T16:18:45.078Z,99.90
2022-12-29T16:21:29.464Z,99.90
2022-12-29T16:24:01.898Z,99.90
2022-12-29T16:26:29.577Z,99.90
2022-12-29T16:29:02.414Z,99.90
2022-12-29T16:32:06.207Z,99.90
2022-12-29T16:34:37.777Z,99.90
2022-12-29T16:37:26.241Z,99.90
2022-12-29T16:39:53.430Z,99.90
2022-12-29T16:42:38.823Z,99.90
2022-12-29T16:45:24.066Z,99.90
2022-12-29T16:48:07.520Z,99.90
2022-12-29T16:50:38.706Z,99.90
2022-12-29T16:53:08.722Z,99.90
2022-12-29T16:55:35.903Z,99.90
2022-12-29T16:58:03.196Z,99.90
2022-12-29T17:00:36.189Z,99.90
2022-12-29T17:03:04.591Z,99.90
2022-12-29T17:05:31.836Z,99.90
2022-12-29T17:08:01.757Z,99.90
2022-12-29T17:10:49.378Z,99.90
2022-12-29T17:13:16.520Z,99.90
2022-12-29T17:15:43.825Z,99.90
2022-12-29T17:18:14.048Z,99.90
2022-12-29T17:20:42.109Z,99.90
2022-12-29T17:23:19.940Z,99.90
2022-12-29T17:25:52.137Z,99.90
2022-12-29T17:28:31.724Z,99.90
2022-12-29T17:31:02.671Z,99.90
2022-12-29T17:33:35.579Z,99.90
2022-12-29T17:36:02.957Z,99.90
2022-12-29T17:38:32.113Z,99.90
2022-12-29T17:40:59.767Z,99.90
2022-12-29T17:43:33.022Z,99.90
2022-12-29T17:46:06.925Z,99.90
2022-12-29T17:48:34.422Z,99.90
2022-12-29T17:51:01.754Z,99.90
2022-12-29T17:53:30.570Z,99.90
2022-12-29T17:55:57.827Z,99.90
2022-12-29T17:58:27.441Z,99.90
2022-12-29T18:00:57.240Z,99.90
2022-12-29T18:03:29.087Z,99.90
2022-12-29T18:05:56.519Z,99.90
2022-12-29T18:08:23.775Z,99.90
2022-12-29T18:10:54.066Z,99.90
2022-12-29T18:13:33.694Z,99.90
2022-12-29T18:16:06.649Z,99.90
2022-12-29T18:18:33.896Z,99.90
2022-12-29T18:21:01.085Z,99.90
2022-12-29T18:23:36.757Z,99.90
2022-12-29T18:26:12.164Z,99.90
2022-12-29T18:28:40.220Z,99.90
2022-12-29T18:31:19.907Z,99.90
2022-12-29T18:33:48.700Z,99.90
2022-12-29T18:36:16.674Z,99.90
2022-12-29T18:38:44.452Z,99.90
2022-12-29T18:41:20.496Z,99.90
2022-12-29T18:43:47.825Z,99.90
2022-12-29T18:46:22.110Z,99.90
2022-12-29T18:48:51.394Z,99.90
2022-12-29T18:51:24.249Z,99.90
2022-12-29T18:53:55.121Z,99.90
2022-12-29T18:56:23.378Z,99.90
2022-12-29T18:58:51.445Z,99.90
2022-12-29T19:01:24.656Z,99.90
2022-12-29T19:03:52.117Z,99.90
2022-12-29T19:06:20.964Z,99.90
2022-12-29T19:08:48.318Z,99.90
2022-12-29T19:11:15.576Z,99.90
2022-12-29T19:13:42.827Z,99.90
2022-12-29T19:16:18.310Z,99.90
2022-12-29T19:18:50.876Z,99.90
2022-12-29T19:21:23.329Z,99.90
2022-12-29T19:23:51.754Z,99.90
2022-12-29T19:26:27.560Z,99.90
2022-12-29T19:28:54.783Z,99.90
2022-12-29T19:31:22.164Z,99.90
2022-12-29T19:33:49.391Z,99.90
2022-12-29T19:36:17.913Z,99.90
2022-12-29T19:38:46.030Z,99.90
2022-12-29T19:41:14.536Z,99.90
2022-12-29T19:43:41.872Z,99.90
2022-12-29T19:46:11.330Z,99.90
2022-12-29T19:48:38.637Z,99.90
2022-12-29T19:51:08.774Z,99.90
2022-12-29T19:53:36.382Z,99.90
2022-12-29T19:56:05.102Z,99.90
2022-12-29T19:58:33.741Z,99.90
2022-12-29T20:01:19.709Z,99.90
2022-12-29T20:03:47.534Z,99.90
2022-12-29T20:06:15.626Z,99.90
2022-12-29T20:08:43.500Z,99.90
2022-12-29T20:11:12.983Z,99.90
2022-12-29T20:13:40.939Z,99.90
2022-12-29T20:16:12.915Z,99.90
2022-12-29T20:18:40.607Z,99.90
2022-12-29T20:21:16.993Z,99.90
2022-12-29T20:23:45.220Z,99.90
2022-12-29T20:26:25.493Z,99.90
2022-12-29T20:28:54.230Z,99.90
2022-12-29T20:31:26.494Z,99.90
2022-12-29T20:33:54.063Z,99.90
2022-12-29T20:36:24.438Z,99.90
2022-12-29T20:38:53.486Z,99.90
2022-12-29T20:41:22.641Z,99.90
2022-12-29T20:43:50.805Z,99.90
2022-12-29T20:46:21.363Z,99.90
2022-12-29T20:48:50.577Z,99.90
2022-12-29T20:51:19.025Z,99.90
2022-12-29T20:53:46.763Z,99.90
2022-12-29T20:56:16.805Z,99.90
2022-12-29T20:59:08.507Z,99.90
2022-12-29T21:01:32.636Z,99.90
2022-12-29T21:03:59.941Z,99.90
2022-12-29T21:06:27.313Z,99.90
2022-12-29T21:08:55.078Z,99.90
2022-12-29T21:11:22.676Z,99.90
2022-12-29T21:13:50.297Z,99.90
2022-12-29T21:16:20.889Z,99.90
2022-12-29T21:18:48.734Z,99.90
2022-12-29T21:21:22.264Z,99.90
2022-12-29T21:23:50.244Z,99.90
2022-12-29T21:26:19.810Z,99.90
2022-12-29T21:28:47.109Z,99.90
2022-12-29T21:31:30.124Z,99.90
2022-12-29T21:33:57.923Z,99.90
2022-12-29T21:36:25.209Z,99.90
2022-12-29T21:38:52.728Z,99.90
2022-12-29T21:41:21.061Z,99.90
2022-12-29T21:44:06.941Z,99.90
2022-12-29T21:46:36.742Z,99.90
2022-12-29T21:49:05.395Z,99.90
2022-12-29T21:51:51.298Z,99.90
2022-12-29T21:54:38.050Z,99.90
2022-12-29T21:57:06.400Z,99.90
2022-12-29T21:59:52.122Z,99.90
2022-12-29T22:02:43.723Z,99.90
2022-12-29T22:05:32.072Z,99.90
2022-12-29T22:08:18.348Z,99.90
2022-12-29T22:11:05.828Z,99.90
2022-12-29T22:13:38.026Z,99.90
2022-12-29T22:16:07.416Z,99.90
2022-12-29T22:18:35.233Z,99.90
2022-12-29T22:21:06.900Z,99.90
2022-12-29T22:23:34.447Z,99.90
2022-12-29T22:26:10.842Z,99.90
2022-12-29T22:28:39.712Z,99.90
2022-12-29T22:31:28.870Z,99.90
2022-12-29T22:33:57.663Z,99.90
2022-12-29T22:36:25.633Z,99.90
2022-12-29T22:38:52.930Z,99.90
2022-12-29T22:41:20.250Z,99.90
2022-12-29T22:43:47.450Z,99.90
2022-12-29T22:46:14.794Z,99.90
2022-12-29T22:48:42.002Z,99.90
2022-12-29T22:51:09.435Z,99.90
2022-12-29T22:53:36.745Z,99.90
2022-12-29T22:56:07.003Z,99.90
2022-12-29T22:58:34.384Z,99.90
2022-12-29T23:01:02.599Z,99.90
2022-12-29T23:03:29.829Z,99.90
2022-12-29T23:05:58.710Z,99.90
2022-12-29T23:08:27.583Z,99.90
2022-12-29T23:10:54.753Z,99.90
2022-12-29T23:13:21.915Z,99.90
2022-12-29T23:15:49.271Z,99.90
2022-12-29T23:18:17.175Z,99.90
2022-12-29T23:20:45.153Z,99.90
2022-12-29T23:23:12.330Z,99.90
2022-12-29T23:25:39.913Z,99.90
2022-12-29T23:28:08.643Z,99.90
2022-12-29T23:30:35.831Z,99.90
2022-12-29T23:33:03.009Z,99.90
2022-12-29T23:35:30.184Z,99.90
2022-12-29T23:37:57.581Z,99.90
2022-12-29T23:40:24.796Z,99.90
2022-12-29T23:42:51.941Z,99.90
2022-12-29T23:45:19.161Z,99.90
2022-12-29T23:47:46.353Z,99.90
2022-12-29T23:50:13.567Z,99.90
2022-12-29T23:52:40.731Z,99.90
2022-12-29T23:55:08.868Z,99.90
2022-12-29T23:57:36.395Z,99.90
